Time;durP1;ratioP1;P1;durP2;ratioP2;P2;SDS_P1;SDS_P2;PMS_P1;PMS_P2;Temp;Humidity;BMP_temperature;BMP_pressure;BME280_temperature;BME280_humidity;BME280_pressure;Samples;Min_cycle;Max_cycle;Signal;HPM_P1;HPM_P2
2020/12/19 00:00:04;;;;;;;26.28;14.38;;;;;;;3.57;73.14;100324.80;319417;107;2871983;-73
2020/12/19 00:01:32;;;;;;;29.15;15.03;;;;;;;3.56;73.05;100328.48;369385;108;1961980;-71
2020/12/19 00:02:41;;;;;;;28.55;14.36;;;;;;;3.56;73.08;100339.16;364172;107;1961977;-71
2020/12/19 00:03:47;;;;;;;26.03;14.01;;;;;;;3.48;73.37;100337.20;307593;108;2154735;-72
2020/12/19 00:04:52;;;;;;;27.74;13.47;;;;;;;3.48;73.29;100338.05;334144;109;1962901;-72
2020/12/19 00:05:58;;;;;;;27.39;14.72;;;;;;;3.48;73.26;100340.72;363953;107;1959711;-72
2020/12/19 00:07:03;;;;;;;25.67;13.28;;;;;;;3.47;73.32;100340.88;351984;113;1960900;-73
2020/12/19 00:08:09;;;;;;;26.21;13.67;;;;;;;3.47;73.47;100332.86;355885;112;1961898;-71
2020/12/19 00:09:16;;;;;;;27.03;14.38;;;;;;;3.50;73.36;100337.91;356489;112;1961943;-70
2020/12/19 00:10:22;;;;;;;29.13;13.79;;;;;;;3.50;73.33;100336.08;325517;110;1961024;-73
2020/12/19 00:11:28;;;;;;;27.90;14.72;;;;;;;3.51;73.38;100331.58;364087;110;1965444;-72
2020/12/19 00:12:34;;;;;;;30.52;16.34;;;;;;;3.52;73.36;100334.11;363298;110;1961783;-73
2020/12/19 00:13:40;;;;;;;27.07;14.02;;;;;;;3.55;73.23;100334.78;362453;110;1961957;-74
2020/12/19 00:14:47;;;;;;;29.01;15.18;;;;;;;3.54;73.21;100331.28;346010;110;2250881;-73
2020/12/19 00:15:52;;;;;;;25.11;12.98;;;;;;;3.52;73.24;100339.45;363306;110;1960798;-72
2020/12/19 00:16:59;;;;;;;31.34;14.61;;;;;;;3.55;73.12;100340.12;364465;110;1961979;-72
2020/12/19 00:18:05;;;;;;;25.43;14.23;;;;;;;3.52;73.12;100325.27;328006;110;2570938;-72
2020/12/19 00:19:11;;;;;;;29.99;14.89;;;;;;;3.49;73.35;100333.54;333938;110;1962016;-71
2020/12/19 00:20:18;;;;;;;28.31;15.77;;;;;;;3.48;73.35;100331.86;363765;110;1962066;-71
2020/12/19 00:21:26;;;;;;;27.62;14.64;;;;;;;3.47;73.35;100333.70;362714;108;1964004;-71
2020/12/19 00:22:31;;;;;;;23.97;14.57;;;;;;;3.47;73.43;100335.53;359574;110;1963953;-72
2020/12/19 00:23:37;;;;;;;28.08;13.65;;;;;;;3.48;73.32;100335.37;359589;110;1962005;-71
2020/12/19 00:24:43;;;;;;;29.99;15.91;;;;;;;3.49;73.39;100338.87;360225;110;1963876;-72
2020/12/19 00:25:49;;;;;;;28.62;14.63;;;;;;;3.49;73.36;100333.54;308877;110;2819973;-72
2020/12/19 00:26:55;;;;;;;30.64;14.61;;;;;;;3.47;73.40;100343.55;350971;115;1961877;-71
2020/12/19 00:28:01;;;;;;;27.65;15.21;;;;;;;3.47;73.59;100340.88;352510;112;1961895;-71
2020/12/19 00:29:17;;;;;;;26.14;14.99;;;;;;;3.48;73.43;100335.37;349634;115;1961982;-71
2020/12/19 00:30:23;;;;;;;28.59;15.25;;;;;;;3.48;73.39;100338.05;369650;107;1964936;-71
2020/12/19 00:31:29;;;;;;;28.75;14.38;;;;;;;3.49;73.35;100344.22;325849;111;2581039;-72
2020/12/19 00:32:40;;;;;;;27.78;15.19;;;;;;;3.49;73.38;100342.42;337021;109;1961975;-71
2020/12/19 00:33:45;;;;;;;28.38;13.58;;;;;;;3.48;73.54;100340.72;364244;109;1961997;-71
2020/12/19 00:34:50;;;;;;;28.92;15.47;;;;;;;3.51;73.48;100342.26;364016;109;1961946;-72
2020/12/19 00:35:57;;;;;;;28.07;13.81;;;;;;;3.43;73.81;100342.13;363409;109;1961931;-71
2020/12/19 00:37:03;;;;;;;24.86;13.58;;;;;;;3.43;73.75;100332.29;343601;111;2236034;-72
2020/12/19 00:38:09;;;;;;;30.42;15.09;;;;;;;3.41;73.83;100341.42;351348;111;1961904;-71
2020/12/19 00:39:15;;;;;;;28.35;14.64;;;;;;;3.39;73.89;100343.42;358974;111;1961959;-71
2020/12/19 00:40:32;;;;;;;25.26;13.47;;;;;;;3.35;74.16;100345.52;374833;107;1962001;-71
2020/12/19 00:41:38;;;;;;;29.16;14.10;;;;;;;3.36;73.97;100339.21;315007;111;2103199;-72
2020/12/19 00:42:43;;;;;;;28.73;14.62;;;;;;;3.33;74.26;100339.47;356952;108;1964090;-72
2020/12/19 00:43:49;;;;;;;27.36;14.01;;;;;;;3.35;74.07;100334.00;366813;110;1962971;-70
2020/12/19 00:44:54;;;;;;;29.10;15.23;;;;;;;3.40;73.92;100337.09;368522;108;1961984;-71
2020/12/19 00:45:59;;;;;;;24.70;14.30;;;;;;;3.41;73.91;100330.74;361418;110;1962969;-72
2020/12/19 00:47:05;;;;;;;26.26;13.53;;;;;;;3.38;74.03;100337.22;364310;110;1964023;-71
2020/12/19 00:48:11;;;;;;;24.96;14.33;;;;;;;3.35;74.13;100329.49;362002;110;1961972;-73
2020/12/19 00:49:17;;;;;;;26.24;13.18;;;;;;;3.36;74.08;100323.19;354397;110;2944913;-71
2020/12/19 00:50:23;;;;;;;25.80;13.17;;;;;;;3.34;74.00;100333.16;361434;110;1961960;-70
2020/12/19 00:51:28;;;;;;;26.78;13.51;;;;;;;3.36;74.08;100331.20;363359;110;1962013;-71
2020/12/19 00:52:35;;;;;;;29.89;14.28;;;;;;;3.32;74.13;100335.13;362847;110;1960723;-69
2020/12/19 00:53:41;;;;;;;26.44;14.69;;;;;;;3.34;74.23;100345.67;362663;110;1962987;-72
2020/12/19 00:54:47;;;;;;;30.85;15.07;;;;;;;3.37;74.21;100340.05;351975;110;1961953;-72
2020/12/19 00:55:53;;;;;;;25.08;13.63;;;;;;;3.39;74.13;100336.25;362454;110;1962092;-72
2020/12/19 00:57:00;;;;;;;28.66;14.31;;;;;;;3.41;74.15;100336.09;361523;110;1962006;-71
2020/12/19 00:58:07;;;;;;;28.52;13.61;;;;;;;3.45;74.08;100327.66;361475;110;1961971;-70
2020/12/19 00:59:12;;;;;;;29.18;14.64;;;;;;;3.43;74.00;100332.29;362852;110;1962992;-72
2020/12/19 01:00:18;;;;;;;23.87;12.63;;;;;;;3.47;74.04;100328.36;362873;110;1962045;-72
2020/12/19 01:01:25;;;;;;;29.13;15.22;;;;;;;3.49;73.78;100329.06;362487;110;1962021;-71
2020/12/19 01:02:34;;;;;;;25.96;13.20;;;;;;;3.51;73.81;100335.08;330339;110;1962038;-72
2020/12/19 01:03:42;;;;;;;28.92;14.25;;;;;;;3.49;73.75;100336.21;361633;110;1961988;-71
2020/12/19 01:04:47;;;;;;;24.96;13.86;;;;;;;3.49;73.74;100336.21;363852;110;1961996;-70
2020/12/19 01:05:54;;;;;;;25.34;13.62;;;;;;;3.52;73.60;100336.78;362935;110;1962094;-70
2020/12/19 01:07:00;;;;;;;25.20;14.03;;;;;;;3.44;73.88;100341.14;335743;110;2427972;-71
2020/12/19 01:08:07;;;;;;;26.14;14.48;;;;;;;3.47;73.74;100336.38;362875;110;1962015;-70
2020/12/19 01:09:12;;;;;;;24.62;13.44;;;;;;;3.44;73.86;100338.47;362734;110;1961049;-70
2020/12/19 01:10:19;;;;;;;25.72;13.13;;;;;;;3.45;73.72;100332.16;325950;110;2616945;-71
2020/12/19 01:11:27;;;;;;;25.38;13.93;;;;;;;3.42;73.92;100335.13;340727;110;1961900;-71
2020/12/19 01:12:33;;;;;;;25.64;14.29;;;;;;;3.38;74.06;100333.70;363135;110;1961921;-72
2020/12/19 01:13:39;;;;;;;26.41;14.56;;;;;;;3.40;74.03;100334.41;332480;110;2487932;-71
2020/12/19 01:14:44;;;;;;;25.83;14.25;;;;;;;3.40;73.92;100337.92;349779;110;1961972;-71
2020/12/19 01:15:50;;;;;;;25.62;13.90;;;;;;;3.41;73.95;100336.09;362104;110;1964930;-71
2020/12/19 01:16:56;;;;;;;25.47;13.35;;;;;;;3.41;73.96;100333.42;363597;110;1962981;-71
2020/12/19 01:18:02;;;;;;;27.32;14.07;;;;;;;3.43;73.90;100339.47;357868;111;1961979;-71
2020/12/19 01:19:08;;;;;;;25.52;14.32;;;;;;;3.43;73.91;100339.47;337982;110;2320919;-71
2020/12/19 01:20:14;;;;;;;23.08;14.38;;;;;;;3.46;73.94;100337.34;361337;110;1961962;-70
2020/12/19 01:21:22;;;;;;;25.34;13.21;;;;;;;3.48;73.62;100335.37;363517;110;1962956;-71
2020/12/19 01:22:28;;;;;;;23.61;13.79;;;;;;;3.48;73.73;100332.70;359642;110;1963021;-71
2020/12/19 01:23:34;;;;;;;26.25;14.46;;;;;;;3.48;73.65;100343.39;351893;110;1965383;-70
2020/12/19 01:24:39;;;;;;;25.86;13.91;;;;;;;3.46;73.76;100336.50;363142;110;1961945;-73
2020/12/19 01:25:44;;;;;;;25.66;13.58;;;;;;;3.49;73.70;100344.22;364340;110;1962024;-70
2020/12/19 01:26:51;;;;;;;23.34;12.98;;;;;;;3.45;73.63;100340.17;363199;110;1964061;-70
2020/12/19 01:27:58;;;;;;;23.73;13.25;;;;;;;3.41;73.86;100344.94;319363;110;2745964;-70
2020/12/19 01:29:03;;;;;;;23.32;12.34;;;;;;;3.42;73.99;100335.95;353070;110;1962034;-72
2020/12/19 01:30:09;;;;;;;24.71;13.27;;;;;;;3.45;73.88;100342.84;362698;110;1963919;-71
2020/12/19 01:31:17;;;;;;;23.99;14.56;;;;;;;3.45;73.86;100345.52;360360;110;1962939;-71
2020/12/19 01:32:22;;;;;;;26.08;14.61;;;;;;;3.46;73.91;100347.19;316575;110;2071224;-71
2020/12/19 01:33:27;;;;;;;23.57;13.81;;;;;;;3.45;73.80;100338.34;341001;110;1961940;-71
2020/12/19 01:34:33;;;;;;;23.86;12.84;;;;;;;3.45;73.84;100337.50;362435;110;1962036;-72
2020/12/19 01:35:38;;;;;;;25.78;14.34;;;;;;;3.44;73.87;100335.80;362733;110;1963969;-71
2020/12/19 01:36:46;;;;;;;23.85;12.94;;;;;;;3.36;73.99;100341.87;362122;110;1962013;-70
2020/12/19 01:37:53;;;;;;;23.07;12.76;;;;;;;3.37;74.14;100343.55;342417;110;2350891;-72
2020/12/19 01:38:58;;;;;;;24.19;13.39;;;;;;;3.39;74.13;100344.27;363381;110;1962031;-72
2020/12/19 01:40:05;;;;;;;24.91;13.35;;;;;;;3.41;74.07;100338.76;359708;110;1962031;-71
2020/12/19 01:41:11;;;;;;;22.14;12.50;;;;;;;3.45;73.93;100346.34;314339;109;2830021;-71
2020/12/19 01:42:17;;;;;;;25.05;13.49;;;;;;;3.45;73.89;100348.19;360868;109;1960682;-71
2020/12/19 01:43:23;;;;;;;25.37;13.79;;;;;;;3.45;73.90;100346.34;365012;107;1962001;-71
2020/12/19 01:44:29;;;;;;;24.02;12.94;;;;;;;3.46;73.91;100347.19;363691;109;1962000;-72
2020/12/19 01:45:35;;;;;;;25.68;13.14;;;;;;;3.43;73.82;100342.97;317293;109;2802970;-72
2020/12/19 01:46:54;;;;;;;23.91;13.17;;;;;;;3.42;74.07;100343.13;358378;112;1960873;-71
2020/12/19 01:48:03;;;;;;;24.00;13.72;;;;;;;3.42;74.07;100346.64;353853;114;1963909;-71
2020/12/19 01:49:09;;;;;;;25.35;13.53;;;;;;;3.45;74.00;100350.85;352016;113;1961999;-71
2020/12/19 01:50:16;;;;;;;24.61;12.96;;;;;;;3.47;73.94;100341.72;354632;111;1962315;-69
2020/12/19 01:51:21;;;;;;;25.59;13.76;;;;;;;3.46;74.00;100340.01;355646;112;1961038;-71
2020/12/19 01:52:29;;;;;;;25.99;14.33;;;;;;;3.48;74.01;100350.56;353178;112;1962982;-71
2020/12/19 01:53:35;;;;;;;26.12;13.43;;;;;;;3.53;73.84;100349.14;333911;113;2246933;-72
2020/12/19 01:54:41;;;;;;;23.98;13.14;;;;;;;3.49;73.67;100339.75;348778;109;1962933;-72
2020/12/19 01:55:48;;;;;;;24.81;13.80;;;;;;;3.48;73.84;100338.05;359769;110;1961823;-71
2020/12/19 01:56:58;;;;;;;24.24;13.23;;;;;;;3.52;73.72;100343.96;323644;112;2509904;-71
2020/12/19 01:58:14;;;;;;;25.96;15.77;;;;;;;3.52;73.67;100344.80;320636;111;2576990;-72
2020/12/19 01:59:22;;;;;;;26.48;12.86;;;;;;;3.49;73.70;100342.42;356941;112;1963978;-72
2020/12/19 02:00:29;;;;;;;21.17;12.44;;;;;;;3.49;73.81;100344.22;293734;112;2229423;-71
2020/12/19 02:01:47;;;;;;;23.81;13.98;;;;;;;3.50;73.75;100343.25;341035;114;1961022;-71
2020/12/19 02:02:53;;;;;;;31.19;14.67;;;;;;;3.49;73.71;100341.55;326862;110;2499914;-70
2020/12/19 02:03:59;;;;;;;23.51;13.49;;;;;;;3.45;73.97;100345.52;328334;110;1962005;-71
2020/12/19 02:05:04;;;;;;;25.38;14.18;;;;;;;3.48;73.77;100338.05;339175;110;1962994;-69
2020/12/19 02:06:13;;;;;;;24.54;13.87;;;;;;;3.49;73.73;100339.75;360839;110;1961880;-70
2020/12/19 02:07:19;;;;;;;23.94;13.06;;;;;;;3.45;73.93;100334.83;331629;110;1961956;-71
2020/12/19 02:08:25;;;;;;;26.77;14.41;;;;;;;3.45;73.85;100342.84;360707;110;1961969;-70
2020/12/19 02:09:36;;;;;;;24.84;13.25;;;;;;;3.38;74.11;100339.05;360922;110;1961954;-71
2020/12/19 02:10:43;;;;;;;23.68;14.08;;;;;;;3.42;73.96;100338.63;355699;110;1961969;-71
2020/12/19 02:11:49;;;;;;;25.64;14.00;;;;;;;3.41;73.92;100341.42;362723;110;1964916;-71
2020/12/19 02:12:54;;;;;;;22.97;13.57;;;;;;;3.30;74.27;100348.61;362466;110;1963990;-71
2020/12/19 02:14:00;;;;;;;25.67;14.15;;;;;;;3.27;74.58;100348.06;360271;110;1961956;-72
2020/12/19 02:15:05;;;;;;;26.36;13.63;;;;;;;3.27;74.75;100346.22;362215;110;1964028;-71
2020/12/19 02:16:19;;;;;;;26.41;14.27;;;;;;;3.27;74.64;100346.22;312780;110;2815908;-69
2020/12/19 02:17:24;;;;;;;26.02;14.57;;;;;;;3.32;74.53;100342.30;360789;110;1962959;-72
2020/12/19 02:18:29;;;;;;;23.94;13.18;;;;;;;3.32;74.48;100342.30;360316;110;1961898;-71
2020/12/19 02:19:37;;;;;;;25.09;14.24;;;;;;;3.35;74.22;100340.17;360840;110;1962019;-69
2020/12/19 02:20:43;;;;;;;25.15;13.24;;;;;;;3.32;74.32;100340.47;359887;110;1962001;-70
2020/12/19 02:21:49;;;;;;;24.60;14.82;;;;;;;3.21;74.73;100337.95;360946;110;1962012;-71
2020/12/19 02:22:54;;;;;;;24.96;13.65;;;;;;;3.26;74.57;100333.88;359253;110;1962069;-71
2020/12/19 02:24:01;;;;;;;24.63;14.04;;;;;;;3.25;74.60;100329.50;314657;111;2698988;-70
2020/12/19 02:25:06;;;;;;;22.58;12.94;;;;;;;3.28;74.55;100334.58;317911;114;1962035;-70
2020/12/19 02:26:13;;;;;;;22.46;12.81;;;;;;;3.26;74.63;100335.70;355036;111;1961982;-72
2020/12/19 02:27:19;;;;;;;23.28;12.47;;;;;;;3.27;74.68;100335.55;354620;111;1961934;-72
2020/12/19 02:28:24;;;;;;;21.10;11.70;;;;;;;3.30;74.49;100337.09;355495;111;1962018;-71
2020/12/19 02:29:32;;;;;;;23.38;12.32;;;;;;;3.31;74.41;100336.13;339001;112;2926344;-70
2020/12/19 02:30:43;;;;;;;24.58;12.88;;;;;;;3.28;74.62;100341.72;354909;111;1965068;-70
2020/12/19 02:31:49;;;;;;;23.38;13.28;;;;;;;3.29;74.53;100338.92;349714;113;1962056;-71
2020/12/19 02:32:56;;;;;;;21.62;11.49;;;;;;;3.23;74.73;100342.17;299274;114;2122475;-70
2020/12/19 02:34:01;;;;;;;23.03;12.72;;;;;;;3.18;74.97;100341.75;355777;112;1960651;-69
2020/12/19 02:35:20;;;;;;;21.23;12.74;;;;;;;3.20;74.92;100338.92;356021;110;1962961;-70
2020/12/19 02:36:26;;;;;;;20.50;12.36;;;;;;;3.18;75.04;100340.91;367888;108;1961925;-69
2020/12/19 02:37:31;;;;;;;23.26;13.59;;;;;;;3.20;75.04;100341.59;365984;108;1962022;-70
2020/12/19 02:38:38;;;;;;;23.64;12.40;;;;;;;3.22;74.92;100345.80;365369;108;1961929;-71
2020/12/19 02:39:43;;;;;;;22.86;12.45;;;;;;;3.19;75.04;100348.77;366399;108;1961821;-70
2020/12/19 02:40:50;;;;;;;24.51;12.99;;;;;;;3.17;75.07;100341.87;356226;107;1962977;-71
2020/12/19 02:41:55;;;;;;;21.39;11.03;;;;;;;3.22;75.07;100344.97;371221;107;1961933;-70
2020/12/19 02:43:01;;;;;;;22.37;13.57;;;;;;;3.27;74.95;100337.38;370308;107;1961949;-70
2020/12/19 02:44:09;;;;;;;20.87;12.02;;;;;;;3.28;74.91;100341.72;370605;107;1961992;-71
2020/12/19 02:45:14;;;;;;;24.88;14.06;;;;;;;3.30;74.74;100337.92;329929;107;2012634;-71
2020/12/19 02:46:20;;;;;;;22.11;11.92;;;;;;;3.33;74.68;100349.31;371180;107;1963871;-70
2020/12/19 02:47:25;;;;;;;21.13;12.27;;;;;;;3.30;74.79;100337.09;371096;106;1961952;-70
2020/12/19 02:48:30;;;;;;;22.34;12.45;;;;;;;3.32;74.68;100345.80;370110;107;1960887;-71
2020/12/19 02:49:36;;;;;;;22.48;12.48;;;;;;;3.30;74.88;100353.11;369318;107;1961020;-71
2020/12/19 02:50:42;;;;;;;23.12;11.52;;;;;;;3.30;74.94;100353.11;370246;107;1961945;-71
2020/12/19 02:51:48;;;;;;;23.10;12.72;;;;;;;3.30;74.78;100353.11;359500;107;2952967;-70
2020/12/19 02:52:53;;;;;;;24.15;13.03;;;;;;;3.29;74.92;100354.94;350558;107;1962018;-70
2020/12/19 02:53:58;;;;;;;22.10;12.18;;;;;;;3.32;74.78;100353.81;369904;107;1961947;-71
2020/12/19 02:55:04;;;;;;;23.93;12.81;;;;;;;3.33;74.69;100357.33;370118;107;1962900;-71
2020/12/19 02:56:11;;;;;;;22.14;12.12;;;;;;;3.34;74.76;100354.52;369426;107;1961887;-71
2020/12/19 02:57:17;;;;;;;23.42;12.48;;;;;;;3.30;74.62;100345.94;320436;107;2094377;-72
2020/12/19 02:58:22;;;;;;;25.59;12.91;;;;;;;3.33;74.74;100349.31;339478;109;1962072;-70
2020/12/19 02:59:28;;;;;;;23.16;13.94;;;;;;;3.32;74.85;100356.48;364290;107;1962888;-70
2020/12/19 03:00:34;;;;;;;22.61;13.84;;;;;;;3.27;75.00;100348.89;370181;107;1962149;-70
2020/12/19 03:01:39;;;;;;;23.81;12.83;;;;;;;3.32;74.95;100350.31;370284;107;1961871;-71
2020/12/19 03:02:44;;;;;;;25.28;13.11;;;;;;;3.30;74.96;100340.59;369631;107;1962947;-69
2020/12/19 03:03:50;;;;;;;22.33;12.68;;;;;;;3.30;74.98;100347.77;370398;107;1961948;-70
2020/12/19 03:04:58;;;;;;;25.14;12.89;;;;;;;3.24;75.21;100343.84;354899;111;1961955;-68
2020/12/19 03:06:03;;;;;;;24.22;12.96;;;;;;;3.22;75.27;100348.47;369795;107;1961760;-71
2020/12/19 03:07:08;;;;;;;23.93;13.37;;;;;;;3.26;75.05;100343.72;370460;107;1964017;-70
2020/12/19 03:08:13;;;;;;;22.79;13.06;;;;;;;3.24;75.08;100346.52;365439;108;1962022;-70
2020/12/19 03:09:20;;;;;;;22.43;12.32;;;;;;;3.24;75.15;100341.17;366793;108;1963021;-69
2020/12/19 03:10:28;;;;;;;20.64;12.29;;;;;;;3.19;75.37;100337.25;370817;107;1961965;-70
2020/12/19 03:11:33;;;;;;;23.12;12.38;;;;;;;3.23;75.38;100341.34;370284;107;1961937;-71
2020/12/19 03:12:39;;;;;;;25.78;13.21;;;;;;;3.14;75.40;100334.16;356185;111;1963976;-70
2020/12/19 03:13:45;;;;;;;24.81;12.29;;;;;;;3.23;75.43;100339.50;340560;107;2476937;-71
2020/12/19 03:14:51;;;;;;;21.02;12.03;;;;;;;3.26;75.29;100344.55;350255;107;1962012;-71
2020/12/19 03:15:56;;;;;;;25.88;13.24;;;;;;;3.32;75.17;100334.28;369989;107;1964972;-71
2020/12/19 03:17:12;;;;;;;22.05;13.11;;;;;;;3.29;75.15;100333.58;369819;107;1964990;-71
2020/12/19 03:18:17;;;;;;;22.20;11.64;;;;;;;3.32;75.09;100332.45;362942;108;1961999;-70
2020/12/19 03:19:23;;;;;;;21.80;11.63;;;;;;;3.32;75.12;100327.11;361613;110;1963000;-71
2020/12/19 03:20:29;;;;;;;24.24;13.00;;;;;;;3.34;75.08;100329.66;301074;110;2215271;-71
2020/12/19 03:21:35;;;;;;;20.78;11.60;;;;;;;3.36;74.88;100327.66;358282;113;1961944;-70
2020/12/19 03:22:40;;;;;;;24.49;13.01;;;;;;;3.38;74.97;100323.02;363734;111;1962871;-70
2020/12/19 03:23:46;;;;;;;27.75;14.34;;;;;;;2.85;74.73;100237.11;364779;109;1962941;-71
2020/12/19 03:24:53;;;;;;;24.94;14.06;;;;;;;3.42;74.81;100319.93;360620;111;1962014;-70
2020/12/19 03:25:59;;;;;;;23.87;13.13;;;;;;;3.36;75.04;100323.19;325768;111;1969012;-71
2020/12/19 03:27:04;;;;;;;24.49;13.49;;;;;;;3.39;75.05;100333.58;330244;111;1961826;-70
2020/12/19 03:28:09;;;;;;;23.88;13.33;;;;;;;3.38;75.00;100336.38;357368;111;1963944;-70
2020/12/19 03:29:15;;;;;;;22.94;12.81;;;;;;;3.38;75.08;100339.05;355789;113;1961917;-70
2020/12/19 03:30:24;;;;;;;23.36;12.61;;;;;;;3.43;75.04;100344.80;364395;110;1962903;-70
2020/12/19 03:31:30;;;;;;;25.30;13.58;;;;;;;3.43;75.03;100340.30;363517;111;1961989;-71
2020/12/19 03:32:35;;;;;;;27.84;14.82;;;;;;;3.45;74.98;100343.67;361726;111;1963941;-70
2020/12/19 03:33:42;;;;;;;23.86;13.51;;;;;;;3.46;74.93;100349.86;358011;111;1964013;-71
2020/12/19 03:34:48;;;;;;;24.98;14.22;;;;;;;3.45;74.96;100349.02;314161;109;2863970;-71
2020/12/19 03:35:53;;;;;;;27.52;13.91;;;;;;;3.43;75.14;100340.30;329500;109;1963997;-71
2020/12/19 03:37:00;;;;;;;26.28;13.58;;;;;;;3.49;75.22;100350.44;363776;111;1961915;-69
2020/12/19 03:38:07;;;;;;;27.12;13.56;;;;;;;3.54;75.05;100352.65;357085;112;1962002;-70
2020/12/19 03:39:13;;;;;;;26.52;13.52;;;;;;;3.57;74.84;100344.34;336461;111;1961974;-71
2020/12/19 03:40:20;;;;;;;26.21;13.66;;;;;;;3.58;74.74;100348.72;363631;111;1961915;-71
2020/12/19 03:41:26;;;;;;;27.70;14.74;;;;;;;3.60;74.85;100345.89;363931;109;1961957;-70
2020/12/19 03:42:32;;;;;;;26.93;14.17;;;;;;;3.59;74.67;100350.39;316124;111;2712009;-71
2020/12/19 03:43:37;;;;;;;26.72;13.50;;;;;;;3.62;74.75;100351.94;333249;109;1962001;-71
2020/12/19 03:44:43;;;;;;;25.83;13.02;;;;;;;3.64;74.51;100352.64;363799;110;1961987;-70
2020/12/19 03:45:48;;;;;;;25.80;14.48;;;;;;;3.63;74.40;100357.14;364395;110;1961914;-69
2020/12/19 03:46:54;;;;;;;26.19;14.17;;;;;;;3.61;74.57;100358.27;365029;109;1962931;-71
2020/12/19 03:48:00;;;;;;;27.47;14.33;;;;;;;3.61;74.70;100351.09;364932;110;1961950;-71
2020/12/19 03:49:06;;;;;;;28.63;15.17;;;;;;;3.63;74.68;100353.64;321123;110;2714017;-71
2020/12/19 03:50:13;;;;;;;26.63;14.33;;;;;;;3.65;74.55;100357.85;364109;109;1963934;-71
2020/12/19 03:51:18;;;;;;;26.24;13.93;;;;;;;3.64;74.46;100350.80;363253;111;1962002;-72
2020/12/19 03:52:23;;;;;;;30.23;14.62;;;;;;;3.63;74.50;100353.64;363996;110;1962056;-71
2020/12/19 03:53:28;;;;;;;32.18;15.24;;;;;;;3.64;74.49;100348.13;362812;111;1961950;-72
2020/12/19 03:54:35;;;;;;;29.66;15.81;;;;;;;3.66;74.45;100348.00;363464;109;1963023;-72
2020/12/19 03:55:40;;;;;;;31.08;15.29;;;;;;;3.64;74.53;100348.13;335020;110;2463786;-70
2020/12/19 03:56:47;;;;;;;30.07;14.98;;;;;;;3.65;74.54;100355.18;362655;111;1961990;-70
2020/12/19 03:57:52;;;;;;;29.33;14.72;;;;;;;3.69;74.50;100356.56;362755;109;1962055;-71
2020/12/19 03:58:57;;;;;;;31.70;16.78;;;;;;;3.66;74.36;100359.52;363699;111;1961945;-71
2020/12/19 04:00:04;;;;;;;31.05;15.14;;;;;;;3.67;74.37;100357.69;362070;109;1960958;-71
2020/12/19 04:01:11;;;;;;;28.93;14.78;;;;;;;3.65;74.31;100354.31;363948;109;1961953;-71
2020/12/19 04:02:17;;;;;;;30.58;14.51;;;;;;;3.62;74.35;100357.27;362927;111;1961946;-71
2020/12/19 04:03:23;;;;;;;30.17;14.52;;;;;;;3.60;74.56;100352.09;363603;109;1961901;-71
2020/12/19 04:04:28;;;;;;;28.88;14.27;;;;;;;3.63;74.52;100359.81;359336;111;1962007;-71
2020/12/19 04:05:36;;;;;;;29.26;14.63;;;;;;;3.59;74.46;100360.24;357031;111;1961968;-71
2020/12/19 04:06:43;;;;;;;30.51;15.42;;;;;;;3.60;74.62;100356.57;364524;111;1961933;-71
2020/12/19 04:07:49;;;;;;;33.74;15.66;;;;;;;3.57;74.76;100360.38;324685;111;2659949;-71
2020/12/19 04:08:55;;;;;;;25.44;14.36;;;;;;;3.56;74.80;100361.37;339679;111;1962159;-72
2020/12/19 04:10:00;;;;;;;32.51;14.58;;;;;;;3.56;74.81;100352.52;361263;111;1962884;-71
2020/12/19 04:11:06;;;;;;;27.47;14.23;;;;;;;3.57;74.77;100356.86;364388;109;1962994;-71
2020/12/19 04:12:13;;;;;;;28.33;13.68;;;;;;;3.51;74.90;100358.28;358503;111;1962017;-71
2020/12/19 04:13:19;;;;;;;28.05;14.46;;;;;;;3.50;75.05;100362.79;347938;113;2943957;-71
2020/12/19 04:14:37;;;;;;;34.03;14.26;;;;;;;3.49;75.06;100365.59;343147;111;1961908;-70
2020/12/19 04:15:32;;;;;;;31.00;14.09;;;;;;;3.50;75.02;100354.77;368210;108;1961930;-72
2020/12/19 04:16:38;;;;;;;32.11;14.26;;;;;;;3.46;75.14;100352.53;348824;108;2288083;-71
2020/12/19 04:17:44;;;;;;;26.77;14.04;;;;;;;3.49;75.16;100357.58;347157;107;1963993;-73
2020/12/19 04:18:49;;;;;;;27.76;13.94;;;;;;;3.48;75.12;100355.91;377535;104;1961995;-71
2020/12/19 04:19:55;;;;;;;27.73;13.39;;;;;;;3.47;75.18;100351.56;380489;106;1961973;-71
2020/12/19 04:21:01;;;;;;;29.34;14.19;;;;;;;3.46;75.24;100355.20;380035;104;1961961;-71
2020/12/19 04:22:07;;;;;;;25.46;13.70;;;;;;;3.52;75.13;100359.98;379768;104;1962002;-71
2020/12/19 04:23:13;;;;;;;27.39;13.86;;;;;;;3.56;75.00;100360.53;358022;106;2357633;-71
2020/12/19 04:24:18;;;;;;;27.13;13.31;;;;;;;3.53;75.02;100359.83;358152;104;1963002;-72
2020/12/19 04:25:24;;;;;;;28.91;14.59;;;;;;;3.57;75.03;100357.70;377923;106;1961958;-71
2020/12/19 04:26:31;;;;;;;27.25;13.19;;;;;;;3.59;75.00;100352.23;380926;104;1962982;-71
2020/12/19 04:27:38;;;;;;;26.98;12.86;;;;;;;3.57;75.00;100349.69;333434;104;2754956;-70
2020/12/19 04:28:43;;;;;;;30.82;14.45;;;;;;;3.58;74.91;100356.73;379113;104;1963056;-71
2020/12/19 04:29:49;;;;;;;28.56;13.33;;;;;;;3.58;74.85;100359.41;380531;106;1963003;-73
2020/12/19 04:30:56;;;;;;;25.81;12.93;;;;;;;3.58;74.85;100354.06;380941;106;1960592;-71
2020/12/19 04:32:02;;;;;;;25.82;12.89;;;;;;;3.59;74.87;100354.89;355972;104;1962019;-68
2020/12/19 04:33:08;;;;;;;25.54;12.73;;;;;;;3.56;74.89;100356.02;380947;104;1963955;-71
2020/12/19 04:34:13;;;;;;;23.89;12.87;;;;;;;3.58;74.84;100354.06;380483;104;1962051;-70
2020/12/19 04:35:19;;;;;;;25.47;13.46;;;;;;;3.55;74.85;100354.35;380565;104;1963945;-71
2020/12/19 04:36:26;;;;;;;23.37;13.54;;;;;;;3.57;74.84;100355.03;342751;106;2599953;-70
2020/12/19 04:37:31;;;;;;;27.57;12.54;;;;;;;3.58;74.80;100350.55;344119;104;1961921;-70
2020/12/19 04:38:37;;;;;;;26.67;12.92;;;;;;;3.59;74.78;100349.55;366195;104;1963903;-71
2020/12/19 04:39:42;;;;;;;29.62;13.38;;;;;;;3.59;74.81;100353.06;380194;104;1961986;-73
2020/12/19 04:40:48;;;;;;;25.80;12.66;;;;;;;3.61;74.75;100355.60;380381;104;1962999;-70
2020/12/19 04:41:54;;;;;;;26.61;14.37;;;;;;;3.58;74.74;100353.22;380905;106;1963988;-70
2020/12/19 04:43:14;;;;;;;28.53;13.58;;;;;;;3.59;74.68;100353.06;337118;104;2880910;-71
2020/12/19 04:44:20;;;;;;;26.81;12.90;;;;;;;3.61;74.67;100352.94;379372;106;1961982;-70
2020/12/19 04:45:26;;;;;;;29.15;13.60;;;;;;;3.58;74.68;100348.72;356671;104;1961947;-71
2020/12/19 04:46:34;;;;;;;28.81;13.60;;;;;;;3.59;74.68;100360.24;380375;104;1961924;-68
2020/12/19 04:47:41;;;;;;;25.91;13.61;;;;;;;3.58;74.73;100348.72;331123;104;2787002;-71
2020/12/19 04:48:47;;;;;;;27.51;14.13;;;;;;;3.57;74.67;100352.36;380000;104;1962013;-71
2020/12/19 04:49:55;;;;;;;25.18;12.42;;;;;;;3.57;74.74;100352.36;379602;104;1961927;-71
2020/12/19 04:51:01;;;;;;;24.64;12.64;;;;;;;3.56;74.68;100353.36;341862;104;1977267;-70
2020/12/19 04:52:06;;;;;;;23.61;12.26;;;;;;;3.57;74.64;100351.52;381420;106;1962004;-71
2020/12/19 04:53:14;;;;;;;25.30;12.82;;;;;;;3.57;74.75;100354.19;380704;104;1962037;-71
2020/12/19 04:54:20;;;;;;;21.11;12.51;;;;;;;3.56;74.72;100349.84;315745;104;2222666;-71
2020/12/19 04:55:26;;;;;;;20.23;11.48;;;;;;;3.53;74.63;100343.80;379742;104;1962026;-71
2020/12/19 04:56:34;;;;;;;25.71;13.53;;;;;;;3.53;74.75;100348.30;380649;104;1962866;-70
2020/12/19 04:57:40;;;;;;;23.38;11.94;;;;;;;3.46;74.98;100345.34;342131;105;1961999;-70
2020/12/19 04:58:46;;;;;;;24.13;13.23;;;;;;;3.48;74.89;100342.55;379915;104;1962029;-72